sensor_id;sensor_type;location;lat;lon;timestamp;P1;durP1;ratioP1;P2;durP2;ratioP2
28862;SDS011;15994;51.796;13.006;2023-04-24T00:00:42;9.95;;;8.75;;
28862;SDS011;15994;51.796;13.006;2023-04-24T00:03:10;8.88;;;7.97;;
28862;SDS011;15994;51.796;13.006;2023-04-24T00:05:37;8.70;;;7.80;;
28862;SDS011;15994;51.796;13.006;2023-04-24T00:08:05;9.10;;;8.20;;
28862;SDS011;15994;51.796;13.006;2023-04-24T00:10:32;10.82;;;8.60;;
28862;SDS011;15994;51.796;13.006;2023-04-24T00:12:58;9.75;;;8.75;;
28862;SDS011;15994;51.796;13.006;2023-04-24T00:15:25;10.20;;;8.57;;
28862;SDS011;15994;51.796;13.006;2023-04-24T00:17:51;8.52;;;7.63;;
28862;SDS011;15994;51.796;13.006;2023-04-24T00:20:18;8.85;;;7.93;;
28862;SDS011;15994;51.796;13.006;2023-04-24T00:22:44;9.48;;;7.93;;
28862;SDS011;15994;51.796;13.006;2023-04-24T00:25:11;8.88;;;7.65;;
28862;SDS011;15994;51.796;13.006;2023-04-24T00:27:37;9.30;;;8.40;;
28862;SDS011;15994;51.796;13.006;2023-04-24T00:30:04;10.43;;;8.23;;
28862;SDS011;15994;51.796;13.006;2023-04-24T00:32:31;8.65;;;7.53;;
28862;SDS011;15994;51.796;13.006;2023-04-24T00:34:58;10.15;;;7.88;;
28862;SDS011;15994;51.796;13.006;2023-04-24T00:37:24;9.68;;;7.95;;
28862;SDS011;15994;51.796;13.006;2023-04-24T00:39:51;10.25;;;8.27;;
28862;SDS011;15994;51.796;13.006;2023-04-24T00:42:17;9.52;;;7.80;;
28862;SDS011;15994;51.796;13.006;2023-04-24T00:44:44;11.50;;;8.23;;
28862;SDS011;15994;51.796;13.006;2023-04-24T00:47:10;9.90;;;8.07;;
28862;SDS011;15994;51.796;13.006;2023-04-24T00:49:38;9.82;;;8.60;;
28862;SDS011;15994;51.796;13.006;2023-04-24T00:52:05;9.35;;;8.20;;
28862;SDS011;15994;51.796;13.006;2023-04-24T00:54:32;11.48;;;8.82;;
28862;SDS011;15994;51.796;13.006;2023-04-24T00:56:59;10.27;;;9.07;;
28862;SDS011;15994;51.796;13.006;2023-04-24T00:59:26;9.90;;;8.90;;
28862;SDS011;15994;51.796;13.006;2023-04-24T01:01:53;12.05;;;9.18;;
28862;SDS011;15994;51.796;13.006;2023-04-24T01:04:20;9.52;;;8.60;;
28862;SDS011;15994;51.796;13.006;2023-04-24T01:06:46;9.68;;;8.60;;
28862;SDS011;15994;51.796;13.006;2023-04-24T01:09:14;9.55;;;8.65;;
28862;SDS011;15994;51.796;13.006;2023-04-24T01:11:41;9.95;;;8.95;;
28862;SDS011;15994;51.796;13.006;2023-04-24T01:14:08;9.93;;;8.65;;
28862;SDS011;15994;51.796;13.006;2023-04-24T01:16:35;9.45;;;8.50;;
28862;SDS011;15994;51.796;13.006;2023-04-24T01:19:03;9.48;;;8.48;;
28862;SDS011;15994;51.796;13.006;2023-04-24T01:21:31;9.60;;;8.05;;
28862;SDS011;15994;51.796;13.006;2023-04-24T01:24:02;10.43;;;9.32;;
28862;SDS011;15994;51.796;13.006;2023-04-24T01:26:29;10.68;;;8.23;;
28862;SDS011;15994;51.796;13.006;2023-04-24T01:28:56;9.20;;;8.27;;
28862;SDS011;15994;51.796;13.006;2023-04-24T01:31:23;9.60;;;8.30;;
28862;SDS011;15994;51.796;13.006;2023-04-24T01:33:50;9.15;;;8.25;;
28862;SDS011;15994;51.796;13.006;2023-04-24T01:36:17;10.20;;;8.57;;
28862;SDS011;15994;51.796;13.006;2023-04-24T01:38:44;8.68;;;7.88;;
28862;SDS011;15994;51.796;13.006;2023-04-24T01:41:11;9.23;;;7.40;;
28862;SDS011;15994;51.796;13.006;2023-04-24T01:43:37;9.75;;;7.72;;
28862;SDS011;15994;51.796;13.006;2023-04-24T01:46:04;8.48;;;7.00;;
28862;SDS011;15994;51.796;13.006;2023-04-24T01:48:31;6.85;;;6.03;;
28862;SDS011;15994;51.796;13.006;2023-04-24T01:50:59;7.50;;;5.88;;
28862;SDS011;15994;51.796;13.006;2023-04-24T01:53:25;7.80;;;5.65;;
28862;SDS011;15994;51.796;13.006;2023-04-24T01:55:52;7.45;;;5.88;;
28862;SDS011;15994;51.796;13.006;2023-04-24T01:58:19;5.97;;;5.18;;
28862;SDS011;15994;51.796;13.006;2023-04-24T02:00:45;8.00;;;5.25;;
28862;SDS011;15994;51.796;13.006;2023-04-24T02:03:12;5.97;;;4.63;;
28862;SDS011;15994;51.796;13.006;2023-04-24T02:05:38;5.30;;;4.65;;
28862;SDS011;15994;51.796;13.006;2023-04-24T02:08:05;4.97;;;4.47;;
28862;SDS011;15994;51.796;13.006;2023-04-24T02:10:31;5.78;;;4.15;;
28862;SDS011;15994;51.796;13.006;2023-04-24T02:12:58;5.07;;;3.75;;
28862;SDS011;15994;51.796;13.006;2023-04-24T02:15:25;6.88;;;4.28;;
28862;SDS011;15994;51.796;13.006;2023-04-24T02:17:52;4.88;;;4.10;;
28862;SDS011;15994;51.796;13.006;2023-04-24T02:20:18;5.95;;;4.45;;
28862;SDS011;15994;51.796;13.006;2023-04-24T02:22:45;5.38;;;4.15;;
28862;SDS011;15994;51.796;13.006;2023-04-24T02:25:11;5.60;;;4.32;;
28862;SDS011;15994;51.796;13.006;2023-04-24T02:27:38;8.20;;;4.53;;
28862;SDS011;15994;51.796;13.006;2023-04-24T02:30:04;5.20;;;4.15;;
28862;SDS011;15994;51.796;13.006;2023-04-24T02:32:32;5.22;;;4.10;;
28862;SDS011;15994;51.796;13.006;2023-04-24T02:34:58;5.43;;;3.92;;
28862;SDS011;15994;51.796;13.006;2023-04-24T02:37:25;5.75;;;4.00;;
28862;SDS011;15994;51.796;13.006;2023-04-24T02:39:51;5.53;;;3.60;;
28862;SDS011;15994;51.796;13.006;2023-04-24T02:42:18;4.28;;;3.45;;
28862;SDS011;15994;51.796;13.006;2023-04-24T02:44:44;3.80;;;3.38;;
28862;SDS011;15994;51.796;13.006;2023-04-24T02:47:11;5.75;;;3.50;;
28862;SDS011;15994;51.796;13.006;2023-04-24T02:49:37;5.00;;;3.40;;
28862;SDS011;15994;51.796;13.006;2023-04-24T02:52:04;6.15;;;3.53;;
28862;SDS011;15994;51.796;13.006;2023-04-24T02:54:30;5.43;;;3.80;;
28862;SDS011;15994;51.796;13.006;2023-04-24T02:56:57;3.83;;;3.40;;
28862;SDS011;15994;51.796;13.006;2023-04-24T02:59:24;4.18;;;3.05;;
28862;SDS011;15994;51.796;13.006;2023-04-24T03:01:52;3.65;;;2.80;;
28862;SDS011;15994;51.796;13.006;2023-04-24T03:04:18;4.57;;;3.05;;
28862;SDS011;15994;51.796;13.006;2023-04-24T03:06:45;3.30;;;2.90;;
28862;SDS011;15994;51.796;13.006;2023-04-24T03:09:12;3.60;;;3.03;;
28862;SDS011;15994;51.796;13.006;2023-04-24T03:11:38;4.35;;;3.00;;
28862;SDS011;15994;51.796;13.006;2023-04-24T03:14:05;4.18;;;3.08;;
28862;SDS011;15994;51.796;13.006;2023-04-24T03:16:32;3.33;;;2.70;;
28862;SDS011;15994;51.796;13.006;2023-04-24T03:18:59;4.25;;;2.97;;
28862;SDS011;15994;51.796;13.006;2023-04-24T03:21:25;6.00;;;2.85;;
28862;SDS011;15994;51.796;13.006;2023-04-24T03:23:52;4.00;;;2.40;;
28862;SDS011;15994;51.796;13.006;2023-04-24T03:26:19;3.80;;;2.25;;
28862;SDS011;15994;51.796;13.006;2023-04-24T03:28:45;3.70;;;2.10;;
28862;SDS011;15994;51.796;13.006;2023-04-24T03:31:12;4.03;;;2.17;;
28862;SDS011;15994;51.796;13.006;2023-04-24T03:33:40;3.65;;;1.80;;
28862;SDS011;15994;51.796;13.006;2023-04-24T03:36:06;3.30;;;2.00;;
28862;SDS011;15994;51.796;13.006;2023-04-24T03:38:33;4.25;;;1.90;;
28862;SDS011;15994;51.796;13.006;2023-04-24T03:41:00;3.00;;;2.03;;
28862;SDS011;15994;51.796;13.006;2023-04-24T03:43:27;3.15;;;2.08;;
28862;SDS011;15994;51.796;13.006;2023-04-24T03:45:53;4.88;;;2.10;;
28862;SDS011;15994;51.796;13.006;2023-04-24T03:48:20;5.30;;;2.00;;
28862;SDS011;15994;51.796;13.006;2023-04-24T03:50:46;2.28;;;1.75;;
28862;SDS011;15994;51.796;13.006;2023-04-24T03:53:13;2.58;;;1.58;;
28862;SDS011;15994;51.796;13.006;2023-04-24T03:55:40;2.42;;;1.60;;
28862;SDS011;15994;51.796;13.006;2023-04-24T03:58:06;3.53;;;1.50;;
28862;SDS011;15994;51.796;13.006;2023-04-24T04:00:33;4.60;;;1.70;;
28862;SDS011;15994;51.796;13.006;2023-04-24T04:02:59;1.83;;;1.35;;
28862;SDS011;15994;51.796;13.006;2023-04-24T04:05:26;2.08;;;1.40;;
28862;SDS011;15994;51.796;13.006;2023-04-24T04:07:52;2.00;;;1.30;;
28862;SDS011;15994;51.796;13.006;2023-04-24T04:10:19;3.33;;;1.33;;
28862;SDS011;15994;51.796;13.006;2023-04-24T04:12:47;2.80;;;1.30;;
28862;SDS011;15994;51.796;13.006;2023-04-24T04:15:13;2.03;;;1.30;;
28862;SDS011;15994;51.796;13.006;2023-04-24T04:17:40;1.73;;;1.05;;
28862;SDS011;15994;51.796;13.006;2023-04-24T04:20:07;2.58;;;1.10;;
28862;SDS011;15994;51.796;13.006;2023-04-24T04:22:35;2.03;;;1.00;;
28862;SDS011;15994;51.796;13.006;2023-04-24T04:25:02;1.77;;;1.05;;
28862;SDS011;15994;51.796;13.006;2023-04-24T04:27:29;4.10;;;1.45;;
28862;SDS011;15994;51.796;13.006;2023-04-24T04:30:03;2.45;;;1.23;;
28862;SDS011;15994;51.796;13.006;2023-04-24T04:32:31;2.10;;;1.05;;
28862;SDS011;15994;51.796;13.006;2023-04-24T04:34:59;3.03;;;1.10;;
28862;SDS011;15994;51.796;13.006;2023-04-24T04:37:28;3.15;;;1.33;;
28862;SDS011;15994;51.796;13.006;2023-04-24T04:39:56;2.05;;;0.95;;
28862;SDS011;15994;51.796;13.006;2023-04-24T04:42:23;2.60;;;1.00;;
28862;SDS011;15994;51.796;13.006;2023-04-24T04:44:51;2.80;;;1.05;;
28862;SDS011;15994;51.796;13.006;2023-04-24T04:47:18;3.72;;;1.00;;
28862;SDS011;15994;51.796;13.006;2023-04-24T04:49:47;5.55;;;1.30;;
28862;SDS011;15994;51.796;13.006;2023-04-24T04:52:14;2.90;;;0.98;;
28862;SDS011;15994;51.796;13.006;2023-04-24T04:54:41;2.45;;;1.10;;
28862;SDS011;15994;51.796;13.006;2023-04-24T04:57:08;1.67;;;0.90;;
28862;SDS011;15994;51.796;13.006;2023-04-24T04:59:35;2.88;;;1.10;;
28862;SDS011;15994;51.796;13.006;2023-04-24T05:02:02;5.30;;;1.25;;
28862;SDS011;15994;51.796;13.006;2023-04-24T05:04:28;6.95;;;1.20;;
28862;SDS011;15994;51.796;13.006;2023-04-24T05:06:55;2.67;;;1.20;;
28862;SDS011;15994;51.796;13.006;2023-04-24T05:09:22;3.10;;;1.00;;
28862;SDS011;15994;51.796;13.006;2023-04-24T05:11:52;2.13;;;1.00;;
28862;SDS011;15994;51.796;13.006;2023-04-24T05:14:18;3.85;;;0.85;;
28862;SDS011;15994;51.796;13.006;2023-04-24T05:16:45;3.22;;;0.95;;
28862;SDS011;15994;51.796;13.006;2023-04-24T05:19:12;2.05;;;1.17;;
28862;SDS011;15994;51.796;13.006;2023-04-24T05:21:39;2.53;;;1.10;;
28862;SDS011;15994;51.796;13.006;2023-04-24T05:24:06;2.53;;;1.08;;
28862;SDS011;15994;51.796;13.006;2023-04-24T05:26:33;4.38;;;1.65;;
28862;SDS011;15994;51.796;13.006;2023-04-24T05:29:00;5.13;;;1.00;;
28862;SDS011;15994;51.796;13.006;2023-04-24T05:31:27;3.88;;;1.20;;
28862;SDS011;15994;51.796;13.006;2023-04-24T05:33:54;2.90;;;0.90;;
28862;SDS011;15994;51.796;13.006;2023-04-24T05:36:20;4.70;;;1.27;;
28862;SDS011;15994;51.796;13.006;2023-04-24T05:38:47;4.03;;;1.27;;
28862;SDS011;15994;51.796;13.006;2023-04-24T05:41:13;2.40;;;1.30;;
28862;SDS011;15994;51.796;13.006;2023-04-24T05:43:40;4.32;;;1.77;;
28862;SDS011;15994;51.796;13.006;2023-04-24T05:46:06;2.58;;;1.25;;
28862;SDS011;15994;51.796;13.006;2023-04-24T05:48:33;3.92;;;1.88;;
28862;SDS011;15994;51.796;13.006;2023-04-24T05:51:00;3.20;;;1.60;;
28862;SDS011;15994;51.796;13.006;2023-04-24T05:53:26;2.97;;;1.30;;
28862;SDS011;15994;51.796;13.006;2023-04-24T05:55:53;3.10;;;1.60;;
28862;SDS011;15994;51.796;13.006;2023-04-24T05:58:19;2.78;;;1.20;;
28862;SDS011;15994;51.796;13.006;2023-04-24T06:00:46;2.47;;;1.10;;
28862;SDS011;15994;51.796;13.006;2023-04-24T06:03:12;5.22;;;1.27;;
28862;SDS011;15994;51.796;13.006;2023-04-24T06:05:39;3.30;;;1.08;;
28862;SDS011;15994;51.796;13.006;2023-04-24T06:08:05;2.50;;;1.10;;
28862;SDS011;15994;51.796;13.006;2023-04-24T06:10:32;3.20;;;1.20;;
28862;SDS011;15994;51.796;13.006;2023-04-24T06:12:59;2.30;;;1.10;;
28862;SDS011;15994;51.796;13.006;2023-04-24T06:15:29;1.95;;;1.10;;
28862;SDS011;15994;51.796;13.006;2023-04-24T06:17:56;1.55;;;1.02;;
28862;SDS011;15994;51.796;13.006;2023-04-24T06:20:23;1.77;;;0.93;;
28862;SDS011;15994;51.796;13.006;2023-04-24T06:22:50;3.83;;;1.13;;
28862;SDS011;15994;51.796;13.006;2023-04-24T06:25:17;2.55;;;1.13;;
28862;SDS011;15994;51.796;13.006;2023-04-24T06:27:44;2.55;;;1.30;;
28862;SDS011;15994;51.796;13.006;2023-04-24T06:30:10;1.40;;;0.98;;
28862;SDS011;15994;51.796;13.006;2023-04-24T06:32:37;2.50;;;1.10;;
28862;SDS011;15994;51.796;13.006;2023-04-24T06:35:04;2.30;;;1.25;;
28862;SDS011;15994;51.796;13.006;2023-04-24T06:37:32;2.63;;;0.98;;
28862;SDS011;15994;51.796;13.006;2023-04-24T06:39:58;2.47;;;1.15;;
28862;SDS011;15994;51.796;13.006;2023-04-24T06:42:25;3.22;;;1.05;;
28862;SDS011;15994;51.796;13.006;2023-04-24T06:44:51;3.03;;;1.20;;
28862;SDS011;15994;51.796;13.006;2023-04-24T06:47:18;2.45;;;1.20;;
28862;SDS011;15994;51.796;13.006;2023-04-24T06:49:45;4.55;;;1.17;;
28862;SDS011;15994;51.796;13.006;2023-04-24T06:52:12;3.42;;;1.10;;
28862;SDS011;15994;51.796;13.006;2023-04-24T06:54:38;5.05;;;1.40;;
28862;SDS011;15994;51.796;13.006;2023-04-24T06:57:04;3.95;;;1.58;;
28862;SDS011;15994;51.796;13.006;2023-04-24T06:59:31;3.42;;;1.35;;
28862;SDS011;15994;51.796;13.006;2023-04-24T07:01:57;4.00;;;1.33;;
28862;SDS011;15994;51.796;13.006;2023-04-24T07:04:24;5.85;;;1.13;;
28862;SDS011;15994;51.796;13.006;2023-04-24T07:06:51;4.15;;;1.08;;
28862;SDS011;15994;51.796;13.006;2023-04-24T07:09:19;3.78;;;1.00;;
28862;SDS011;15994;51.796;13.006;2023-04-24T07:11:46;3.78;;;1.30;;
28862;SDS011;15994;51.796;13.006;2023-04-24T07:14:13;4.55;;;1.08;;
28862;SDS011;15994;51.796;13.006;2023-04-24T07:16:40;2.58;;;1.10;;
28862;SDS011;15994;51.796;13.006;2023-04-24T07:19:06;4.10;;;1.13;;
28862;SDS011;15994;51.796;13.006;2023-04-24T07:21:33;2.47;;;1.17;;
28862;SDS011;15994;51.796;13.006;2023-04-24T07:23:59;3.00;;;1.23;;
28862;SDS011;15994;51.796;13.006;2023-04-24T07:26:27;3.90;;;1.00;;
28862;SDS011;15994;51.796;13.006;2023-04-24T07:28:56;1.85;;;1.02;;
28862;SDS011;15994;51.796;13.006;2023-04-24T07:31:22;1.60;;;0.80;;
28862;SDS011;15994;51.796;13.006;2023-04-24T07:33:49;2.35;;;1.00;;
28862;SDS011;15994;51.796;13.006;2023-04-24T07:36:15;2.50;;;0.80;;
28862;SDS011;15994;51.796;13.006;2023-04-24T07:38:44;2.17;;;0.88;;
28862;SDS011;15994;51.796;13.006;2023-04-24T07:41:12;3.28;;;1.00;;
28862;SDS011;15994;51.796;13.006;2023-04-24T07:43:39;2.08;;;0.80;;
28862;SDS011;15994;51.796;13.006;2023-04-24T07:46:07;4.32;;;1.02;;
28862;SDS011;15994;51.796;13.006;2023-04-24T07:48:34;3.40;;;0.90;;
28862;SDS011;15994;51.796;13.006;2023-04-24T07:51:01;3.03;;;0.85;;
28862;SDS011;15994;51.796;13.006;2023-04-24T07:53:28;2.38;;;0.90;;
28862;SDS011;15994;51.796;13.006;2023-04-24T07:55:55;2.83;;;0.90;;
28862;SDS011;15994;51.796;13.006;2023-04-24T07:58:22;1.33;;;0.55;;
28862;SDS011;15994;51.796;13.006;2023-04-24T08:00:48;1.88;;;0.60;;
28862;SDS011;15994;51.796;13.006;2023-04-24T08:03:15;6.10;;;0.60;;
28862;SDS011;15994;51.796;13.006;2023-04-24T08:05:44;2.88;;;0.70;;
28862;SDS011;15994;51.796;13.006;2023-04-24T08:08:10;2.83;;;0.90;;
28862;SDS011;15994;51.796;13.006;2023-04-24T08:10:37;3.47;;;0.70;;
28862;SDS011;15994;51.796;13.006;2023-04-24T08:13:04;2.22;;;0.70;;
28862;SDS011;15994;51.796;13.006;2023-04-24T08:15:30;6.55;;;0.82;;
28862;SDS011;15994;51.796;13.006;2023-04-24T08:17:57;24.17;;;1.35;;
28862;SDS011;15994;51.796;13.006;2023-04-24T08:20:23;4.03;;;0.60;;
28862;SDS011;15994;51.796;13.006;2023-04-24T08:22:50;10.90;;;0.90;;
28862;SDS011;15994;51.796;13.006;2023-04-24T08:25:16;1.10;;;0.47;;
28862;SDS011;15994;51.796;13.006;2023-04-24T08:27:44;2.40;;;0.60;;
28862;SDS011;15994;51.796;13.006;2023-04-24T08:30:10;3.33;;;0.85;;
28862;SDS011;15994;51.796;13.006;2023-04-24T08:32:37;2.50;;;0.50;;
28862;SDS011;15994;51.796;13.006;2023-04-24T08:35:03;3.30;;;0.52;;
28862;SDS011;15994;51.796;13.006;2023-04-24T08:37:30;1.65;;;0.68;;
28862;SDS011;15994;51.796;13.006;2023-04-24T08:39:57;1.63;;;0.50;;
28862;SDS011;15994;51.796;13.006;2023-04-24T08:42:23;2.92;;;0.70;;
28862;SDS011;15994;51.796;13.006;2023-04-24T08:44:51;3.78;;;0.68;;
28862;SDS011;15994;51.796;13.006;2023-04-24T08:47:17;1.45;;;0.43;;
28862;SDS011;15994;51.796;13.006;2023-04-24T08:49:46;3.33;;;0.93;;
28862;SDS011;15994;51.796;13.006;2023-04-24T08:52:14;2.97;;;0.70;;
28862;SDS011;15994;51.796;13.006;2023-04-24T08:54:42;3.63;;;0.70;;
28862;SDS011;15994;51.796;13.006;2023-04-24T08:57:10;1.63;;;0.60;;
28862;SDS011;15994;51.796;13.006;2023-04-24T08:59:40;1.88;;;0.50;;
28862;SDS011;15994;51.796;13.006;2023-04-24T09:02:09;1.92;;;0.60;;
28862;SDS011;15994;51.796;13.006;2023-04-24T09:04:37;4.18;;;0.73;;
28862;SDS011;15994;51.796;13.006;2023-04-24T09:07:03;3.63;;;0.70;;
28862;SDS011;15994;51.796;13.006;2023-04-24T09:09:32;2.58;;;0.60;;
28862;SDS011;15994;51.796;13.006;2023-04-24T09:12:00;1.30;;;0.43;;
28862;SDS011;15994;51.796;13.006;2023-04-24T09:14:28;7.47;;;0.98;;
28862;SDS011;15994;51.796;13.006;2023-04-24T09:16:56;10.52;;;1.05;;
28862;SDS011;15994;51.796;13.006;2023-04-24T09:19:23;5.20;;;0.73;;
28862;SDS011;15994;51.796;13.006;2023-04-24T09:21:50;3.78;;;0.70;;
28862;SDS011;15994;51.796;13.006;2023-04-24T09:24:19;3.22;;;0.50;;
28862;SDS011;15994;51.796;13.006;2023-04-24T09:26:47;1.58;;;0.52;;
28862;SDS011;15994;51.796;13.006;2023-04-24T09:29:15;3.88;;;0.70;;
28862;SDS011;15994;51.796;13.006;2023-04-24T09:31:42;2.08;;;0.80;;
28862;SDS011;15994;51.796;13.006;2023-04-24T09:34:10;2.90;;;0.80;;
28862;SDS011;15994;51.796;13.006;2023-04-24T09:36:38;1.92;;;0.60;;
28862;SDS011;15994;51.796;13.006;2023-04-24T09:39:06;2.58;;;0.70;;
28862;SDS011;15994;51.796;13.006;2023-04-24T09:41:35;8.68;;;0.77;;
28862;SDS011;15994;51.796;13.006;2023-04-24T09:44:17;23.55;;;1.40;;
28862;SDS011;15994;51.796;13.006;2023-04-24T09:46:48;4.45;;;0.75;;
28862;SDS011;15994;51.796;13.006;2023-04-24T09:49:22;2.90;;;0.55;;
28862;SDS011;15994;51.796;13.006;2023-04-24T09:51:50;2.45;;;0.88;;
28862;SDS011;15994;51.796;13.006;2023-04-24T09:54:20;3.50;;;0.70;;
28862;SDS011;15994;51.796;13.006;2023-04-24T09:56:50;1.88;;;0.60;;
28862;SDS011;15994;51.796;13.006;2023-04-24T09:59:18;2.53;;;0.70;;
28862;SDS011;15994;51.796;13.006;2023-04-24T10:01:45;1.70;;;0.57;;
28862;SDS011;15994;51.796;13.006;2023-04-24T10:06:48;2.70;;;0.57;;
28862;SDS011;15994;51.796;13.006;2023-04-24T10:09:16;3.10;;;0.85;;
28862;SDS011;15994;51.796;13.006;2023-04-24T10:11:44;3.38;;;0.50;;
28862;SDS011;15994;51.796;13.006;2023-04-24T10:14:13;3.25;;;0.70;;
28862;SDS011;15994;51.796;13.006;2023-04-24T10:16:41;4.03;;;0.60;;
28862;SDS011;15994;51.796;13.006;2023-04-24T10:19:09;3.13;;;0.60;;
28862;SDS011;15994;51.796;13.006;2023-04-24T10:21:35;2.80;;;0.60;;
28862;SDS011;15994;51.796;13.006;2023-04-24T10:24:07;2.15;;;0.60;;
28862;SDS011;15994;51.796;13.006;2023-04-24T10:26:37;2.15;;;0.40;;
28862;SDS011;15994;51.796;13.006;2023-04-24T10:29:05;1.65;;;0.60;;
28862;SDS011;15994;51.796;13.006;2023-04-24T10:31:34;3.00;;;0.60;;
28862;SDS011;15994;51.796;13.006;2023-04-24T10:34:03;5.32;;;0.63;;
28862;SDS011;15994;51.796;13.006;2023-04-24T10:36:32;8.45;;;1.05;;
28862;SDS011;15994;51.796;13.006;2023-04-24T10:39:01;3.53;;;0.50;;
28862;SDS011;15994;51.796;13.006;2023-04-24T10:41:32;5.10;;;0.60;;
28862;SDS011;15994;51.796;13.006;2023-04-24T10:44:04;4.55;;;0.60;;
28862;SDS011;15994;51.796;13.006;2023-04-24T10:46:34;12.88;;;1.08;;
28862;SDS011;15994;51.796;13.006;2023-04-24T10:49:05;5.68;;;0.75;;
28862;SDS011;15994;51.796;13.006;2023-04-24T10:51:52;7.50;;;0.85;;
28862;SDS011;15994;51.796;13.006;2023-04-24T10:56:50;8.50;;;0.93;;
28862;SDS011;15994;51.796;13.006;2023-04-24T10:59:34;7.32;;;0.70;;
28862;SDS011;15994;51.796;13.006;2023-04-24T11:02:02;9.20;;;1.37;;
28862;SDS011;15994;51.796;13.006;2023-04-24T11:04:29;3.22;;;0.52;;
28862;SDS011;15994;51.796;13.006;2023-04-24T11:06:57;9.75;;;1.40;;
28862;SDS011;15994;51.796;13.006;2023-04-24T11:09:26;9.25;;;1.10;;
28862;SDS011;15994;51.796;13.006;2023-04-24T11:12:03;4.35;;;0.77;;
28862;SDS011;15994;51.796;13.006;2023-04-24T11:17:34;4.05;;;0.75;;
28862;SDS011;15994;51.796;13.006;2023-04-24T11:20:16;6.10;;;0.93;;
28862;SDS011;15994;51.796;13.006;2023-04-24T11:22:43;25.80;;;1.70;;
28862;SDS011;15994;51.796;13.006;2023-04-24T11:25:10;3.65;;;0.73;;
28862;SDS011;15994;51.796;13.006;2023-04-24T11:27:41;7.93;;;0.82;;
28862;SDS011;15994;51.796;13.006;2023-04-24T11:30:09;2.40;;;0.70;;
28862;SDS011;15994;51.796;13.006;2023-04-24T11:32:37;5.20;;;0.70;;
28862;SDS011;15994;51.796;13.006;2023-04-24T11:35:06;2.55;;;0.60;;
28862;SDS011;15994;51.796;13.006;2023-04-24T11:37:50;3.35;;;0.47;;
28862;SDS011;15994;51.796;13.006;2023-04-24T11:40:18;5.15;;;0.55;;
28862;SDS011;15994;51.796;13.006;2023-04-24T11:42:48;8.13;;;0.70;;
28862;SDS011;15994;51.796;13.006;2023-04-24T11:45:24;1.77;;;0.55;;
28862;SDS011;15994;51.796;13.006;2023-04-24T11:47:52;4.70;;;0.73;;
28862;SDS011;15994;51.796;13.006;2023-04-24T11:50:19;4.65;;;0.55;;
28862;SDS011;15994;51.796;13.006;2023-04-24T11:52:50;1.35;;;0.45;;
28862;SDS011;15994;51.796;13.006;2023-04-24T11:57:47;5.68;;;0.60;;
28862;SDS011;15994;51.796;13.006;2023-04-24T12:00:16;3.03;;;0.57;;
28862;SDS011;15994;51.796;13.006;2023-04-24T12:02:43;3.10;;;0.50;;
28862;SDS011;15994;51.796;13.006;2023-04-24T12:05:26;3.40;;;0.60;;
28862;SDS011;15994;51.796;13.006;2023-04-24T12:07:53;1.27;;;0.60;;
28862;SDS011;15994;51.796;13.006;2023-04-24T12:10:24;2.92;;;0.70;;
28862;SDS011;15994;51.796;13.006;2023-04-24T12:12:52;2.40;;;0.70;;
28862;SDS011;15994;51.796;13.006;2023-04-24T12:15:20;1.85;;;0.60;;
28862;SDS011;15994;51.796;13.006;2023-04-24T12:17:47;1.98;;;0.68;;
28862;SDS011;15994;51.796;13.006;2023-04-24T12:20:16;3.10;;;0.63;;
28862;SDS011;15994;51.796;13.006;2023-04-24T12:25:16;2.47;;;0.73;;
28862;SDS011;15994;51.796;13.006;2023-04-24T12:27:44;4.55;;;0.88;;
28862;SDS011;15994;51.796;13.006;2023-04-24T12:30:15;3.10;;;0.80;;
28862;SDS011;15994;51.796;13.006;2023-04-24T12:32:49;1.70;;;0.70;;
28862;SDS011;15994;51.796;13.006;2023-04-24T12:35:20;1.30;;;0.50;;
28862;SDS011;15994;51.796;13.006;2023-04-24T12:37:48;1.48;;;0.80;;
28862;SDS011;15994;51.796;13.006;2023-04-24T12:40:15;1.25;;;0.60;;
28862;SDS011;15994;51.796;13.006;2023-04-24T12:42:46;4.18;;;0.80;;
28862;SDS011;15994;51.796;13.006;2023-04-24T12:45:13;1.42;;;0.77;;
28862;SDS011;15994;51.796;13.006;2023-04-24T12:47:40;1.92;;;0.65;;
28862;SDS011;15994;51.796;13.006;2023-04-24T12:50:11;2.70;;;0.57;;
28862;SDS011;15994;51.796;13.006;2023-04-24T12:52:39;4.80;;;0.65;;
28862;SDS011;15994;51.796;13.006;2023-04-24T12:55:07;3.45;;;0.82;;
28862;SDS011;15994;51.796;13.006;2023-04-24T12:57:34;1.73;;;0.55;;
28862;SDS011;15994;51.796;13.006;2023-04-24T13:00:02;3.15;;;0.70;;
28862;SDS011;15994;51.796;13.006;2023-04-24T13:02:30;3.03;;;0.55;;
28862;SDS011;15994;51.796;13.006;2023-04-24T13:04:58;3.45;;;0.70;;
28862;SDS011;15994;51.796;13.006;2023-04-24T13:07:25;2.47;;;0.60;;
28862;SDS011;15994;51.796;13.006;2023-04-24T13:09:52;3.78;;;0.55;;
28862;SDS011;15994;51.796;13.006;2023-04-24T13:12:20;1.77;;;0.55;;
28862;SDS011;15994;51.796;13.006;2023-04-24T13:14:48;1.70;;;0.70;;
28862;SDS011;15994;51.796;13.006;2023-04-24T13:17:15;1.25;;;0.63;;
28862;SDS011;15994;51.796;13.006;2023-04-24T13:19:42;1.10;;;0.50;;
28862;SDS011;15994;51.796;13.006;2023-04-24T13:22:10;2.78;;;0.65;;
28862;SDS011;15994;51.796;13.006;2023-04-24T13:24:38;3.08;;;0.77;;
28862;SDS011;15994;51.796;13.006;2023-04-24T13:27:06;6.10;;;0.73;;
28862;SDS011;15994;51.796;13.006;2023-04-24T13:29:33;4.20;;;0.70;;
28862;SDS011;15994;51.796;13.006;2023-04-24T13:32:00;3.30;;;0.70;;
28862;SDS011;15994;51.796;13.006;2023-04-24T13:34:27;2.33;;;0.70;;
28862;SDS011;15994;51.796;13.006;2023-04-24T13:36:54;5.25;;;0.88;;
28862;SDS011;15994;51.796;13.006;2023-04-24T13:39:22;2.40;;;0.70;;
28862;SDS011;15994;51.796;13.006;2023-04-24T13:41:50;2.60;;;0.70;;
28862;SDS011;15994;51.796;13.006;2023-04-24T13:44:17;4.72;;;0.80;;
28862;SDS011;15994;51.796;13.006;2023-04-24T13:46:45;3.38;;;1.10;;
28862;SDS011;15994;51.796;13.006;2023-04-24T13:49:14;2.00;;;0.80;;
28862;SDS011;15994;51.796;13.006;2023-04-24T13:51:41;2.40;;;0.80;;
28862;SDS011;15994;51.796;13.006;2023-04-24T13:54:08;5.97;;;0.70;;
28862;SDS011;15994;51.796;13.006;2023-04-24T13:56:35;4.85;;;0.75;;
28862;SDS011;15994;51.796;13.006;2023-04-24T13:59:01;1.60;;;0.60;;
28862;SDS011;15994;51.796;13.006;2023-04-24T14:01:28;1.70;;;0.60;;
28862;SDS011;15994;51.796;13.006;2023-04-24T14:03:55;15.68;;;1.17;;
28862;SDS011;15994;51.796;13.006;2023-04-24T14:06:22;1.55;;;0.70;;
28862;SDS011;15994;51.796;13.006;2023-04-24T14:08:49;4.10;;;0.80;;
28862;SDS011;15994;51.796;13.006;2023-04-24T14:11:16;2.42;;;0.50;;
28862;SDS011;15994;51.796;13.006;2023-04-24T14:13:43;4.10;;;0.80;;
28862;SDS011;15994;51.796;13.006;2023-04-24T14:16:11;3.45;;;0.50;;
28862;SDS011;15994;51.796;13.006;2023-04-24T14:18:37;1.73;;;0.60;;
28862;SDS011;15994;51.796;13.006;2023-04-24T14:21:04;1.52;;;0.80;;
28862;SDS011;15994;51.796;13.006;2023-04-24T14:23:31;1.52;;;0.70;;
28862;SDS011;15994;51.796;13.006;2023-04-24T14:25:58;1.35;;;0.52;;
28862;SDS011;15994;51.796;13.006;2023-04-24T14:28:25;1.30;;;0.57;;
28862;SDS011;15994;51.796;13.006;2023-04-24T14:30:52;1.88;;;0.80;;
28862;SDS011;15994;51.796;13.006;2023-04-24T14:33:19;1.65;;;0.75;;
28862;SDS011;15994;51.796;13.006;2023-04-24T14:35:45;2.20;;;0.88;;
28862;SDS011;15994;51.796;13.006;2023-04-24T14:38:12;2.85;;;1.02;;
28862;SDS011;15994;51.796;13.006;2023-04-24T14:40:39;2.45;;;0.80;;
28862;SDS011;15994;51.796;13.006;2023-04-24T14:43:06;1.90;;;1.02;;
28862;SDS011;15994;51.796;13.006;2023-04-24T14:45:32;1.50;;;0.73;;
28862;SDS011;15994;51.796;13.006;2023-04-24T14:47:59;0.88;;;0.63;;